Time;durP1;ratioP1;P1;durP2;ratioP2;P2;SDS_P1;SDS_P2;PMS_P1;PMS_P2;Temp;Humidity;BMP_temperature;BMP_pressure;BME280_temperature;BME280_humidity;BME280_pressure;Samples;Min_cycle;Max_cycle;Signal;HPM_P1;HPM_P2
2022/12/19 00:01:42;;;;;;;27.67;19.92;;;;;;;7.77;66.00;101369.66;5051149;28;20036;-79
2022/12/19 00:04:11;;;;;;;30.92;23.98;;;;;;;8.31;65.57;101451.47;5050910;28;20033;-78
2022/12/19 00:06:38;;;;;;;28.48;21.38;;;;;;;8.31;65.90;101461.16;5051049;28;20525;-77
2022/12/19 00:09:04;;;;;;;30.88;22.98;;;;;;;8.32;65.74;101462.84;5050945;28;20108;-79
2022/12/19 00:11:30;;;;;;;30.60;23.08;;;;;;;7.87;65.64;101394.31;5049558;28;20048;-78
2022/12/19 00:13:57;;;;;;;34.10;25.52;;;;;;;8.36;65.60;101478.31;5051130;28;20021;-78
2022/12/19 00:16:28;;;;;;;29.98;22.65;;;;;;;8.40;65.44;101481.56;5051116;28;20513;-78
2022/12/19 00:18:56;;;;;;;32.10;24.15;;;;;;;8.19;65.32;101462.94;5051096;28;20619;-78
2022/12/19 00:21:24;;;;;;;30.60;22.83;;;;;;;8.20;65.44;101475.97;5050990;28;20490;-78
2022/12/19 00:23:50;;;;;;;27.20;20.17;;;;;;;8.25;65.77;101473.84;5051295;28;20031;-79
2022/12/19 00:26:16;;;;;;;29.23;22.70;;;;;;;8.32;65.43;101499.69;5051251;28;20032;-78
2022/12/19 00:28:45;;;;;;;29.48;22.23;;;;;;;8.06;65.42;101472.66;5051118;28;20025;-78
2022/12/19 00:31:11;;;;;;;28.25;22.25;;;;;;;8.14;65.30;101483.47;5049901;28;20441;-78
2022/12/19 00:33:37;;;;;;;26.35;20.70;;;;;;;8.01;65.73;101459.88;5050899;28;20494;-78
2022/12/19 00:36:05;;;;;;;28.20;21.08;;;;;;;7.97;65.73;101461.03;5050763;28;20110;-78
2022/12/19 00:38:31;;;;;;;27.58;19.80;;;;;;;7.76;65.55;101426.66;5050504;28;20043;-78
2022/12/19 00:41:07;;;;;;;23.73;18.55;;;;;;;7.93;65.06;101451.72;5050567;28;20032;-78
2022/12/19 00:43:32;;;;;;;27.08;19.27;;;;;;;7.78;65.25;101452.84;5050793;28;20104;-78
2022/12/19 00:46:01;;;;;;;23.63;17.83;;;;;;;7.43;65.56;101389.69;5050861;28;20565;-78
2022/12/19 00:48:26;;;;;;;25.95;18.98;;;;;;;7.13;65.73;101337.59;5050805;28;20021;-78
2022/12/19 00:51:01;;;;;;;24.33;18.25;;;;;;;7.87;66.00;101462.69;5050851;28;20029;-78
2022/12/19 00:53:27;;;;;;;24.80;18.05;;;;;;;8.17;65.59;101515.66;5054297;28;20036;-78
2022/12/19 00:55:53;;;;;;;26.00;18.80;;;;;;;7.72;65.88;101456.75;5054223;28;20031;-78
2022/12/19 00:58:18;;;;;;;26.45;20.50;;;;;;;7.58;65.81;101415.72;5054395;28;20104;-78
2022/12/19 01:00:43;;;;;;;27.70;18.55;;;;;;;7.49;66.13;101392.75;5054247;28;20025;-77
2022/12/19 01:03:09;;;;;;;23.75;18.00;;;;;;;7.92;66.11;101481.59;5052913;28;20029;-78
2022/12/19 01:05:35;;;;;;;21.80;17.20;;;;;;;7.58;65.46;101449.88;5054288;28;20029;-77
2022/12/19 01:08:00;;;;;;;19.23;15.35;;;;;;;7.74;65.55;101462.75;5054036;28;20035;-78
2022/12/19 01:10:25;;;;;;;19.85;14.20;;;;;;;7.45;64.84;101432.50;5053915;28;20070;-78
2022/12/19 01:12:51;;;;;;;21.30;14.57;;;;;;;7.32;65.07;101401.00;5053700;28;20122;-78
2022/12/19 01:15:19;;;;;;;19.50;15.05;;;;;;;7.94;64.96;101514.72;5053840;28;20095;-77
2022/12/19 01:17:46;;;;;;;19.95;14.60;;;;;;;7.95;64.46;101507.66;5053727;28;20021;-78
2022/12/19 01:20:14;;;;;;;18.67;13.48;;;;;;;7.64;64.75;101454.69;5052306;28;20108;-78
2022/12/19 01:22:40;;;;;;;17.75;13.60;;;;;;;7.90;64.31;101520.31;5052543;28;20037;-78
2022/12/19 01:25:05;;;;;;;16.20;13.15;;;;;;;7.90;64.29;101504.53;5052460;28;20034;-78
2022/12/19 01:27:31;;;;;;;16.10;12.43;;;;;;;7.88;64.26;101516.97;5053744;28;20053;-79
2022/12/19 01:29:56;;;;;;;16.67;13.05;;;;;;;7.88;63.97;101501.19;5052313;28;20436;-77
2022/12/19 01:32:22;;;;;;;15.52;11.07;;;;;;;7.63;63.93;101473.22;5052398;28;20021;-78
2022/12/19 01:34:48;;;;;;;16.42;11.38;;;;;;;7.54;63.34;101437.09;5053885;28;20020;-78
2022/12/19 01:37:13;;;;;;;15.77;11.82;;;;;;;7.82;63.17;101512.16;5052553;28;20401;-78
2022/12/19 01:39:39;;;;;;;15.57;11.63;;;;;;;7.70;63.32;101490.22;5052269;28;20060;-78
2022/12/19 01:42:14;;;;;;;15.55;11.65;;;;;;;7.14;63.27;101412.84;5053557;28;20025;-78
2022/12/19 01:45:02;;;;;;;15.90;12.07;;;;;;;7.32;63.40;101438.63;5053997;28;20021;-78
2022/12/19 01:47:29;;;;;;;12.02;9.85;;;;;;;7.74;63.53;101510.06;5053701;28;20418;-77
2022/12/19 01:49:55;;;;;;;14.77;11.15;;;;;;;7.34;63.04;101438.50;5053451;28;20017;-77
2022/12/19 01:52:21;;;;;;;13.95;10.85;;;;;;;7.15;63.11;101404.00;5052162;28;20020;-78
2022/12/19 01:54:47;;;;;;;16.48;10.55;;;;;;;7.73;62.86;101507.56;5052207;28;20024;-78
2022/12/19 01:57:17;;;;;;;13.50;10.18;;;;;;;7.34;62.95;101434.09;5053391;28;20043;-77
2022/12/19 01:59:47;;;;;;;13.68;10.43;;;;;;;7.73;62.36;101502.31;5051743;28;20048;-78
2022/12/19 02:02:20;;;;;;;13.93;10.63;;;;;;;7.42;62.35;101444.03;5053140;28;20078;-77
2022/12/19 02:04:46;;;;;;;14.60;10.68;;;;;;;7.76;62.53;101491.56;5052343;28;20025;-77
2022/12/19 02:07:14;;;;;;;14.82;11.32;;;;;;;7.71;61.93;101480.53;5052999;28;20025;-77
2022/12/19 02:09:40;;;;;;;14.32;11.05;;;;;;;7.72;61.92;101490.09;5053012;28;20071;-77
2022/12/19 02:12:06;;;;;;;13.43;10.20;;;;;;;7.28;62.34;101417.94;5052974;28;20068;-77
2022/12/19 02:14:33;;;;;;;13.95;10.60;;;;;;;7.74;62.04;101490.84;5053375;28;20110;-78
2022/12/19 02:17:31;;;;;;;12.98;10.18;;;;;;;7.75;61.45;101489.88;5052971;28;20017;-78
2022/12/19 02:20:17;;;;;;;11.63;9.43;;;;;;;7.68;61.09;101502.63;5052591;28;20155;-77
2022/12/19 02:23:28;;;;;;;14.73;10.32;;;;;;;7.56;61.02;101496.47;5052614;28;20614;-78
2022/12/19 02:26:24;;;;;;;12.93;9.57;;;;;;;7.33;61.05;101457.84;5052356;28;20116;-78
2022/12/19 02:28:58;;;;;;;15.52;9.77;;;;;;;7.63;61.13;101510.84;5051133;28;20467;-78
2022/12/19 02:31:29;;;;;;;11.75;9.98;;;;;;;7.30;61.37;101452.81;5051164;28;20024;-78
2022/12/19 02:34:09;;;;;;;11.18;9.25;;;;;;;7.69;61.21;101532.41;5052499;28;20025;-77
2022/12/19 02:36:49;;;;;;;10.48;8.68;;;;;;;7.30;60.51;101463.31;5052338;28;20417;-78
2022/12/19 02:39:23;;;;;;;12.77;9.73;;;;;;;7.69;61.41;101529.75;5052440;28;20461;-78
2022/12/19 02:41:56;;;;;;;12.25;8.40;;;;;;;7.41;61.02;101476.53;5052355;28;20029;-77
2022/12/19 02:44:30;;;;;;;13.13;9.48;;;;;;;7.69;60.74;101529.75;5050742;28;20035;-77
2022/12/19 02:46:59;;;;;;;11.07;8.70;;;;;;;7.62;60.80;101530.22;5052143;28;20025;-78
2022/12/19 02:49:26;;;;;;;11.60;8.50;;;;;;;7.19;60.76;101463.25;5052056;28;20520;-77
2022/12/19 02:51:52;;;;;;;12.40;8.88;;;;;;;7.57;60.58;101526.22;5051916;28;20059;-78
2022/12/19 02:54:18;;;;;;;11.75;8.55;;;;;;;6.99;60.45;101434.00;5050896;28;20056;-77
2022/12/19 02:57:05;;;;;;;12.98;10.13;;;;;;;7.70;60.67;101548.06;5052036;28;20087;-78
2022/12/19 02:59:37;;;;;;;11.32;9.05;;;;;;;7.69;60.32;101551.63;5051787;28;20040;-78
2022/12/19 03:02:17;;;;;;;13.05;9.43;;;;;;;7.71;60.53;101551.53;5051970;28;20025;-78
2022/12/19 03:05:20;;;;;;;11.23;8.98;;;;;;;7.70;59.73;101547.22;5052370;28;20025;-78
2022/12/19 03:07:49;;;;;;;13.13;8.93;;;;;;;7.72;60.54;101550.59;5050246;28;20086;-77
2022/12/19 03:10:26;;;;;;;11.23;9.23;;;;;;;7.68;59.91;101557.84;5051964;28;20115;-78
2022/12/19 03:13:24;;;;;;;14.15;10.25;;;;;;;7.23;60.36;101483.94;5050276;28;20137;-79
2022/12/19 03:15:50;;;;;;;12.65;9.82;;;;;;;7.51;59.90;101532.78;5049730;28;20075;-78
2022/12/19 03:18:16;;;;;;;13.60;9.77;;;;;;;7.69;59.89;101559.53;5051642;28;20053;-78
2022/12/19 03:20:51;;;;;;;12.68;10.02;;;;;;;7.71;60.11;101559.41;5051613;28;20152;-78
2022/12/19 03:23:18;;;;;;;14.43;9.40;;;;;;;7.27;60.25;101503.78;5051580;28;20032;-77
2022/12/19 03:25:53;;;;;;;16.35;10.57;;;;;;;7.76;60.35;101571.28;5051311;28;20024;-78
2022/12/19 03:28:25;;;;;;;12.73;9.63;;;;;;;7.76;60.15;101570.44;5051295;28;20035;-78
2022/12/19 03:30:53;;;;;;;13.73;10.55;;;;;;;7.72;60.55;101582.13;5049970;28;20109;-78
2022/12/19 03:33:20;;;;;;;15.32;11.13;;;;;;;7.71;60.63;101580.44;5051450;28;20032;-77
2022/12/19 03:35:49;;;;;;;17.45;12.85;;;;;;;7.21;60.23;101501.59;5051515;28;20087;-77
2022/12/19 03:38:19;;;;;;;16.05;11.27;;;;;;;7.57;60.49;101540.22;5051428;28;20021;-78
2022/12/19 03:40:45;;;;;;;15.27;11.73;;;;;;;7.56;60.22;101549.06;5052006;28;20469;-77
2022/12/19 03:43:12;;;;;;;15.30;12.20;;;;;;;7.54;60.36;101547.47;5051374;28;20111;-78
2022/12/19 03:46:23;;;;;;;18.95;13.23;;;;;;;7.64;59.65;101586.16;5050124;28;20075;-77
2022/12/19 03:48:51;;;;;;;26.55;19.95;;;;;;;7.15;60.50;101514.31;5049059;28;20107;-78
2022/12/19 03:51:32;;;;;;;27.98;24.52;;;;;;;6.86;60.63;101466.47;5048840;28;20025;-77
2022/12/19 03:54:02;;;;;;;29.15;24.98;;;;;;;7.56;60.47;101580.59;5050376;28;20045;-77
2022/12/19 03:56:43;;;;;;;23.58;20.00;;;;;;;7.56;60.68;101583.22;5051169;28;20036;-77
2022/12/19 03:59:45;;;;;;;24.85;19.80;;;;;;;7.18;60.34;101520.19;5050862;28;20029;-78
2022/12/19 04:02:14;;;;;;;20.63;18.42;;;;;;;7.57;60.69;101591.94;5049852;28;20115;-78
2022/12/19 04:04:44;;;;;;;25.20;18.65;;;;;;;7.57;61.13;101590.16;5050999;28;20036;-78
2022/12/19 04:07:13;;;;;;;26.77;20.02;;;;;;;7.20;60.55;101535.84;5049694;28;20115;-78
2022/12/19 04:09:41;;;;;;;23.30;18.35;;;;;;;6.89;61.11;101490.72;5051058;28;20068;-78
2022/12/19 04:12:20;;;;;;;22.38;15.02;;;;;;;7.58;60.32;101610.25;5049398;28;20053;-77
2022/12/19 04:14:46;;;;;;;19.52;15.10;;;;;;;7.13;60.96;101548.59;5050952;28;20025;-77
2022/12/19 04:17:32;;;;;;;22.90;15.77;;;;;;;7.60;61.46;101610.97;5051123;28;20033;-79
2022/12/19 04:20:19;;;;;;;21.25;15.73;;;;;;;7.03;60.59;101529.16;5050910;28;20555;-77
2022/12/19 04:23:00;;;;;;;19.80;14.23;;;;;;;7.60;61.28;101613.59;5051062;28;20045;-77
2022/12/19 04:25:39;;;;;;;20.38;15.20;;;;;;;7.59;61.33;101619.81;5051010;28;20036;-77
2022/12/19 04:28:16;;;;;;;21.27;15.20;;;;;;;7.62;61.39;101624.84;5054783;28;20017;-77
2022/12/19 04:30:43;;;;;;;22.20;15.15;;;;;;;7.61;61.35;101620.53;5054843;28;20612;-78
2022/12/19 04:33:09;;;;;;;22.13;16.05;;;;;;;7.24;61.42;101571.47;5054716;28;20021;-78
2022/12/19 04:35:34;;;;;;;21.73;16.85;;;;;;;7.34;61.41;101575.13;5054717;28;20420;-77
2022/12/19 04:38:00;;;;;;;21.60;15.13;;;;;;;7.08;61.32;101534.09;5054605;28;20033;-77
2022/12/19 04:40:25;;;;;;;22.40;16.75;;;;;;;7.18;61.01;101558.78;5054588;28;20040;-77
2022/12/19 04:42:51;;;;;;;22.85;17.33;;;;;;;7.51;60.93;101610.78;5054571;28;20040;-78
2022/12/19 04:45:16;;;;;;;22.38;16.45;;;;;;;7.27;60.99;101566.00;5054569;28;20021;-77
2022/12/19 04:47:42;;;;;;;24.15;16.38;;;;;;;7.63;61.06;101642.31;5054377;28;20060;-77
2022/12/19 04:50:08;;;;;;;21.85;16.25;;;;;;;7.52;60.66;101613.31;5054288;28;20143;-77
2022/12/19 04:52:33;;;;;;;25.30;17.15;;;;;;;7.36;60.76;101596.91;5054106;28;20094;-78
2022/12/19 04:54:59;;;;;;;26.83;18.58;;;;;;;7.49;60.80;101613.53;5054302;28;20025;-78
2022/12/19 04:57:24;;;;;;;23.30;18.08;;;;;;;7.02;60.65;101535.34;5054309;28;20112;-77
2022/12/19 04:59:49;;;;;;;27.98;19.05;;;;;;;7.14;61.19;101557.31;5053918;28;20043;-78
2022/12/19 05:02:15;;;;;;;25.40;18.90;;;;;;;7.32;61.04;101596.28;5053931;28;20108;-78
2022/12/19 05:04:40;;;;;;;26.73;19.42;;;;;;;6.87;60.41;101537.25;5054226;28;20033;-78
2022/12/19 05:07:06;;;;;;;25.20;18.45;;;;;;;7.58;60.54;101657.56;5054520;28;20049;-78
2022/12/19 05:09:31;;;;;;;25.98;17.83;;;;;;;6.95;60.57;101549.84;5054040;28;20020;-78
2022/12/19 05:11:56;;;;;;;25.70;19.15;;;;;;;7.16;60.05;101581.69;5053836;28;20521;-79
2022/12/19 05:14:22;;;;;;;25.95;18.80;;;;;;;7.49;60.52;101642.44;5054254;28;20479;-79
2022/12/19 05:16:47;;;;;;;24.50;17.60;;;;;;;6.98;60.49;101575.91;5054092;28;20028;-78
2022/12/19 05:19:13;;;;;;;25.10;18.52;;;;;;;7.20;60.31;101623.41;5053967;28;20409;-77
2022/12/19 05:21:39;;;;;;;25.45;18.10;;;;;;;7.42;60.49;101654.28;5053925;28;20023;-77
2022/12/19 05:24:05;;;;;;;28.35;19.40;;;;;;;7.47;60.56;101662.72;5053756;28;20449;-78
2022/12/19 05:26:31;;;;;;;30.40;21.45;;;;;;;7.47;60.78;101683.75;5053758;28;20060;-77
2022/12/19 05:28:56;;;;;;;29.60;20.48;;;;;;;7.26;60.53;101637.91;5053698;28;20064;-78
2022/12/19 05:31:22;;;;;;;27.60;21.23;;;;;;;7.49;60.16;101679.22;5053919;28;20086;-77
2022/12/19 05:33:48;;;;;;;31.25;21.35;;;;;;;7.46;60.17;101676.81;5052289;28;20028;-78
2022/12/19 05:36:15;;;;;;;29.75;21.38;;;;;;;7.37;60.34;101659.03;5053501;28;20029;-78
2022/12/19 05:38:41;;;;;;;29.20;20.15;;;;;;;7.40;60.54;101671.09;5052264;28;20402;-78
2022/12/19 05:41:09;;;;;;;28.92;22.52;;;;;;;7.20;60.64;101635.69;5053519;28;20089;-77
2022/12/19 05:43:35;;;;;;;29.10;19.88;;;;;;;6.77;60.34;101578.22;5053338;28;20032;-77
2022/12/19 05:46:02;;;;;;;25.83;18.80;;;;;;;7.45;60.32;101688.28;5053220;28;20032;-78
2022/12/19 05:48:27;;;;;;;29.73;20.73;;;;;;;6.85;60.76;101590.81;5053118;28;20025;-77
2022/12/19 05:50:53;;;;;;;25.73;19.20;;;;;;;7.46;60.96;101697.00;5053225;28;20470;-79
2022/12/19 05:53:18;;;;;;;27.02;18.98;;;;;;;7.01;60.78;101621.19;5053096;28;20040;-77
2022/12/19 05:55:44;;;;;;;25.85;17.80;;;;;;;6.93;60.60;101617.41;5052029;28;20025;-78
2022/12/19 05:58:10;;;;;;;22.83;17.30;;;;;;;7.39;60.54;101691.28;5051954;28;20553;-78
2022/12/19 06:00:35;;;;;;;24.45;17.45;;;;;;;7.39;61.21;101698.34;5052837;28;20490;-77
2022/12/19 06:03:01;;;;;;;24.05;17.08;;;;;;;7.32;60.74;101684.78;5060021;28;20024;-78
2022/12/19 06:05:26;;;;;;;14.77;11.88;;;;;;;7.06;59.45;101647.13;5070601;28;20037;-78
2022/12/19 06:07:52;;;;;;;14.02;11.30;;;;;;;6.81;59.01;101610.34;5072926;28;20073;-79
2022/12/19 06:10:17;;;;;;;18.38;13.45;;;;;;;7.43;58.44;101716.44;5071579;28;20027;-77
2022/12/19 06:12:42;;;;;;;16.45;13.13;;;;;;;7.34;58.01;101694.22;5068075;28;20056;-78
2022/12/19 06:15:08;;;;;;;13.88;11.25;;;;;;;6.98;57.55;101634.53;5052928;28;20033;-76
2022/12/19 06:17:34;;;;;;;16.35;12.07;;;;;;;7.34;57.31;101688.97;5052876;28;20494;-78
2022/12/19 06:19:59;;;;;;;17.30;11.65;;;;;;;7.36;56.68;101696.75;5052637;28;20025;-79
2022/12/19 06:22:25;;;;;;;14.43;10.00;;;;;;;7.42;55.96;101720.00;5053685;28;20033;-78
2022/12/19 06:24:50;;;;;;;13.45;9.23;;;;;;;6.96;56.29;101674.97;5052465;28;20045;-79
2022/12/19 06:27:15;;;;;;;12.20;9.52;;;;;;;7.24;55.82;101718.59;5059054;28;20028;-78
2022/12/19 06:29:41;;;;;;;13.50;8.60;;;;;;;6.86;55.68;101666.03;5072389;28;20409;-79
2022/12/19 06:32:06;;;;;;;11.63;8.30;;;;;;;6.92;55.38;101663.81;5065154;28;20096;-78
2022/12/19 06:34:32;;;;;;;9.63;6.60;;;;;;;7.08;54.83;101683.81;5052306;28;20035;-79
2022/12/19 06:36:57;;;;;;;11.18;6.93;;;;;;;7.26;54.25;101724.59;5052143;28;20071;-79
2022/12/19 06:39:22;;;;;;;10.35;5.57;;;;;;;6.81;54.72;101668.13;5052103;28;20037;-79
2022/12/19 06:44:32;;;;;;;10.10;6.20;;;;;;;6.34;54.47;101630.06;5052207;28;20559;-79
2022/12/19 06:46:57;;;;;;;10.82;6.65;;;;;;;6.93;54.55;101740.81;5053122;28;20029;-78
2022/12/19 06:49:23;;;;;;;8.85;6.03;;;;;;;7.07;54.47;101774.06;5041209;28;20098;-79
2022/12/19 06:51:48;;;;;;;9.68;6.57;;;;;;;6.67;54.32;101713.63;5034040;28;20025;-79
2022/12/19 06:54:14;;;;;;;9.43;7.50;;;;;;;6.99;54.67;101777.19;5031884;28;20033;-78
2022/12/19 06:56:41;;;;;;;8.30;6.55;;;;;;;7.00;54.00;101774.47;5041523;28;20642;-79
2022/12/19 06:59:11;;;;;;;14.80;9.70;;;;;;;6.96;54.24;101786.09;5060629;28;20024;-79
2022/12/19 07:01:58;;;;;;;13.35;8.57;;;;;;;6.98;54.09;101776.34;5064581;28;20024;-79
2022/12/19 07:04:34;;;;;;;11.52;7.60;;;;;;;6.40;53.00;101692.63;5071689;28;20027;-80
2022/12/19 07:07:00;;;;;;;12.80;8.75;;;;;;;6.98;53.85;101788.63;5050354;28;20029;-79
2022/12/19 07:09:27;;;;;;;10.45;7.47;;;;;;;6.49;53.47;101715.66;5051380;28;20032;-79
2022/12/19 07:11:52;;;;;;;11.43;8.13;;;;;;;6.97;53.38;101795.66;5051683;28;20053;-79
2022/12/19 07:14:18;;;;;;;11.98;6.68;;;;;;;6.80;53.31;101777.53;5051047;28;20032;-79
2022/12/19 07:16:45;;;;;;;12.90;7.43;;;;;;;6.56;53.44;101731.84;5051503;28;20177;-79
2022/12/19 07:19:11;;;;;;;9.70;6.25;;;;;;;6.68;52.93;101750.28;5046834;28;20033;-79
2022/12/19 07:21:37;;;;;;;8.48;5.95;;;;;;;6.73;52.94;101762.28;5051365;28;20159;-77
2022/12/19 07:24:03;;;;;;;7.63;5.82;;;;;;;6.19;52.63;101692.22;5051116;28;20096;-80
2022/12/19 07:26:29;;;;;;;8.55;5.68;;;;;;;6.52;51.64;101741.69;5044154;28;20437;-79
2022/12/19 07:28:54;;;;;;;8.68;5.82;;;;;;;6.68;50.75;101755.53;5043757;28;20033;-79
2022/12/19 07:31:20;;;;;;;8.10;5.00;;;;;;;6.41;50.19;101738.91;5039041;28;20036;-79
2022/12/19 07:33:45;;;;;;;12.32;8.13;;;;;;;6.79;50.10;101815.25;5044949;28;20032;-79
2022/12/19 07:36:10;;;;;;;8.18;6.25;;;;;;;6.32;49.38;101726.38;5055236;28;20078;-79
2022/12/19 07:38:36;;;;;;;10.50;8.77;;;;;;;6.45;49.68;101755.31;5071335;28;20109;-79
2022/12/19 07:41:02;;;;;;;13.95;8.73;;;;;;;6.38;48.77;101726.84;5069215;28;20085;-79
2022/12/19 07:43:27;;;;;;;11.52;8.27;;;;;;;6.33;49.03;101721.03;5071016;28;20508;-79
2022/12/19 07:45:54;;;;;;;9.05;6.70;;;;;;;6.24;48.99;101698.00;5069447;28;20032;-79
2022/12/19 07:48:20;;;;;;;10.80;6.03;;;;;;;6.75;48.85;101784.88;5054880;28;20026;-78
2022/12/19 07:50:46;;;;;;;8.48;5.25;;;;;;;6.46;48.23;101730.75;5055739;28;20012;-77
2022/12/19 07:53:12;;;;;;;9.23;6.05;;;;;;;6.91;46.77;101785.56;5052677;28;20025;-78
2022/12/19 07:55:37;;;;;;;8.38;6.38;;;;;;;6.26;46.86;101700.53;5070225;28;20055;-78
2022/12/19 07:58:02;;;;;;;9.52;6.95;;;;;;;6.67;47.08;101766.97;5056567;28;20539;-78
2022/12/19 08:00:30;;;;;;;13.18;7.82;;;;;;;6.72;46.69;101777.19;5051213;28;20029;-78
2022/12/19 08:02:59;;;;;;;10.00;6.05;;;;;;;6.87;46.78;101805.09;5060988;28;20051;-80
2022/12/19 08:05:25;;;;;;;10.00;6.10;;;;;;;6.96;46.39;101822.03;5041677;28;20135;-79
2022/12/19 08:07:50;;;;;;;8.32;5.00;;;;;;;6.47;45.91;101766.56;5035218;28;20494;-79
2022/12/19 08:10:15;;;;;;;7.35;5.13;;;;;;;6.20;45.76;101712.25;5042079;28;20033;-79
2022/12/19 08:12:41;;;;;;;8.73;5.75;;;;;;;6.28;46.13;101740.63;5034680;28;20049;-79
2022/12/19 08:15:07;;;;;;;11.77;6.22;;;;;;;6.96;46.20;101857.03;5050262;28;20037;-79
2022/12/19 08:17:32;;;;;;;11.75;7.45;;;;;;;6.99;45.97;101841.06;5039768;28;20022;-80
2022/12/19 08:19:57;;;;;;;9.77;6.95;;;;;;;6.74;45.84;101788.44;5044087;28;20505;-77
2022/12/19 08:22:23;;;;;;;11.13;7.10;;;;;;;7.13;46.08;101848.06;5052941;28;20021;-79
2022/12/19 08:24:48;;;;;;;8.85;6.28;;;;;;;6.82;45.92;101793.19;5054631;28;20037;-79
2022/12/19 08:27:17;;;;;;;10.95;7.00;;;;;;;7.21;45.66;101865.94;5054603;28;20029;-79
2022/12/19 08:29:43;;;;;;;12.07;8.27;;;;;;;7.24;46.19;101852.59;5054495;28;20029;-78
2022/12/19 08:32:08;;;;;;;11.55;7.85;;;;;;;7.13;45.78;101820.94;5057681;28;20036;-79
2022/12/19 08:34:34;;;;;;;8.25;5.88;;;;;;;6.59;45.43;101752.66;5046537;28;20083;-79
2022/12/19 08:36:59;;;;;;;11.10;6.53;;;;;;;7.02;45.70;101834.78;5054868;28;20033;-78
2022/12/19 08:39:25;;;;;;;8.63;5.50;;;;;;;6.66;45.31;101767.06;5044273;28;20033;-79
2022/12/19 08:41:50;;;;;;;7.32;5.38;;;;;;;6.37;43.78;101732.19;5054091;28;20032;-79
2022/12/19 08:44:15;;;;;;;10.63;6.95;;;;;;;6.65;44.12;101789.00;5074123;28;20029;-78
2022/12/19 08:46:41;;;;;;;9.73;6.95;;;;;;;7.09;43.83;101851.81;5067201;28;20100;-79
2022/12/19 08:49:06;;;;;;;12.57;8.43;;;;;;;6.76;44.11;101807.56;5060122;28;20029;-79
2022/12/19 08:51:32;;;;;;;12.52;8.55;;;;;;;6.72;43.90;101782.44;5055243;28;20021;-78
2022/12/19 08:53:57;;;;;;;12.52;7.72;;;;;;;7.02;43.35;101819.00;5054120;28;20390;-79
2022/12/19 08:56:22;;;;;;;12.55;8.40;;;;;;;6.61;43.24;101737.63;5051736;28;20417;-79
2022/12/19 08:58:50;;;;;;;13.25;8.70;;;;;;;7.17;43.38;101819.78;5034440;28;20504;-79
2022/12/19 09:01:18;;;;;;;14.23;8.32;;;;;;;7.22;43.23;101826.44;5033789;28;20029;-79
2022/12/19 09:03:44;;;;;;;11.02;8.20;;;;;;;7.41;42.64;101838.34;5040192;28;20485;-79
2022/12/19 09:06:12;;;;;;;12.38;7.88;;;;;;;7.40;42.64;101837.50;5041628;28;20062;-79
2022/12/19 09:08:39;;;;;;;13.60;7.53;;;;;;;7.00;42.45;101768.38;5057334;28;20418;-80
2022/12/19 09:11:04;;;;;;;11.45;6.78;;;;;;;7.46;43.31;101829.25;5059803;28;20048;-79
2022/12/19 09:13:31;;;;;;;10.70;6.93;;;;;;;7.39;43.78;101817.44;5041538;28;20040;-79
2022/12/19 09:16:06;;;;;;;13.65;10.07;;;;;;;7.15;43.30;101756.00;5049822;28;20060;-79
2022/12/19 09:18:31;;;;;;;14.27;8.50;;;;;;;7.51;42.78;101835.03;5049333;28;20034;-80
2022/12/19 09:20:58;;;;;;;19.08;11.90;;;;;;;7.29;43.18;101777.78;5051632;28;20036;-78
2022/12/19 09:23:28;;;;;;;14.63;9.02;;;;;;;7.50;42.80;101822.84;5038782;28;20058;-79
2022/12/19 09:26:01;;;;;;;13.45;8.05;;;;;;;7.15;42.26;101771.78;5055389;28;20052;-79
2022/12/19 09:28:26;;;;;;;17.58;9.98;;;;;;;7.53;42.55;101824.44;5056011;28;20077;-80
2022/12/19 09:31:15;;;;;;;13.40;9.20;;;;;;;7.58;40.91;101825.81;5060833;28;20033;-79
2022/12/19 09:33:41;;;;;;;11.88;8.45;;;;;;;7.47;43.26;101802.03;5042901;28;20037;-79
2022/12/19 09:36:11;;;;;;;9.00;6.63;;;;;;;7.41;42.61;101776.13;5033479;28;20030;-78
2022/12/19 09:38:36;;;;;;;11.18;7.07;;;;;;;6.98;42.95;101717.72;5033394;28;20092;-79
2022/12/19 09:41:41;;;;;;;13.27;8.43;;;;;;;7.62;42.37;101824.66;5033610;28;20120;-79
2022/12/19 09:44:43;;;;;;;12.10;7.45;;;;;;;7.13;42.08;101765.78;5040010;28;20074;-79
2022/12/19 09:47:24;;;;;;;10.23;7.30;;;;;;;7.58;42.58;101827.59;5033677;28;20037;-79
2022/12/19 09:49:51;;;;;;;11.32;7.70;;;;;;;7.50;42.48;101804.44;5034290;28;20033;-78
2022/12/19 09:52:32;;;;;;;12.20;8.77;;;;;;;7.51;42.50;101818.44;5032937;28;20064;-79
2022/12/19 09:55:21;;;;;;;9.35;6.85;;;;;;;7.46;42.01;101807.38;5038763;28;20053;-79
2022/12/19 09:57:49;;;;;;;14.32;7.68;;;;;;;6.97;43.06;101721.28;5032796;28;20113;-79
2022/12/19 10:00:18;;;;;;;12.82;9.02;;;;;;;7.53;42.72;101814.75;5046094;28;20472;-79
2022/12/19 10:02:54;;;;;;;15.20;8.88;;;;;;;7.36;42.16;101780.00;5032064;28;20030;-79
2022/12/19 10:05:44;;;;;;;10.40;7.22;;;;;;;7.51;42.91;101803.50;5041309;28;20036;-79
2022/12/19 10:08:32;;;;;;;12.23;7.32;;;;;;;7.01;42.41;101733.28;5050164;28;20033;-79
2022/12/19 10:11:04;;;;;;;13.35;7.85;;;;;;;7.59;42.78;101795.09;5039269;28;20433;-79
2022/12/19 10:13:48;;;;;;;;;;;;;;;7.48;41.36;101787.94;5051064;28;20029;-80
2022/12/19 10:16:20;;;;;;;10.48;6.35;;;;;;;7.68;42.67;101788.38;5050151;28;20010;-79
2022/12/19 10:18:53;;;;;;;12.75;6.93;;;;;;;7.76;42.92;101788.69;5049654;28;20418;-79
2022/12/19 10:21:49;;;;;;;13.13;8.20;;;;;;;7.79;41.29;101781.44;5052802;28;20111;-79
2022/12/19 10:24:52;;;;;;;14.43;8.63;;;;;;;7.83;42.59;101777.66;5038782;28;20037;-77
2022/12/19 10:27:28;;;;;;;14.35;7.65;;;;;;;7.56;41.47;101745.38;5046922;28;20043;-80
2022/12/19 10:30:12;;;;;;;14.27;8.57;;;;;;;7.83;43.00;101776.81;5052430;28;20047;-77
2022/12/19 10:32:52;;;;;;;13.20;8.48;;;;;;;7.83;42.03;101779.44;5036113;28;20029;-80
2022/12/19 10:35:18;;;;;;;16.50;10.05;;;;;;;7.65;42.77;101731.59;5031068;28;20026;-80
2022/12/19 10:37:56;;;;;;;11.75;8.10;;;;;;;7.51;41.62;101694.91;5034036;28;20059;-80
2022/12/19 10:40:29;;;;;;;16.33;9.43;;;;;;;7.54;42.18;101697.31;5051520;28;20509;-78
2022/12/19 10:42:59;;;;;;;12.88;9.10;;;;;;;8.05;42.48;101769.09;5052652;28;20025;-79
2022/12/19 10:45:33;;;;;;;11.82;7.72;;;;;;;8.00;41.72;101763.31;5045201;28;20036;-80
2022/12/19 10:47:59;;;;;;;13.15;9.05;;;;;;;8.02;41.75;101782.47;5035407;28;20522;-80
2022/12/19 10:50:28;;;;;;;9.60;6.90;;;;;;;7.95;41.44;101761.03;5032091;28;20029;-79
2022/12/19 10:53:02;;;;;;;12.05;7.15;;;;;;;7.96;41.23;101754.81;5031440;28;20037;-79
2022/12/19 10:55:41;;;;;;;12.52;8.75;;;;;;;7.45;41.28;101688.28;5041202;28;20024;-79
2022/12/19 10:58:17;;;;;;;10.15;7.65;;;;;;;7.93;41.27;101748.91;5039446;28;20532;-79
2022/12/19 11:01:23;;;;;;;12.02;8.40;;;;;;;7.41;41.65;101672.78;5029920;28;20033;-79
2022/12/19 11:04:09;;;;;;;11.45;8.43;;;;;;;7.86;42.18;101745.03;5040422;28;20025;-80
2022/12/19 11:07:02;;;;;;;15.75;10.25;;;;;;;7.78;41.82;101739.47;5032247;28;20029;-78
2022/12/19 11:09:28;;;;;;;14.98;9.35;;;;;;;7.75;42.70;101739.69;5058735;28;20028;-80
2022/12/19 11:12:17;;;;;;;12.13;8.00;;;;;;;7.22;41.88;101649.56;5065368;28;20175;-78
2022/12/19 11:14:51;;;;;;;12.77;9.73;;;;;;;7.84;42.13;101732.00;5044606;28;20528;-80
2022/12/19 11:17:33;;;;;;;14.02;8.98;;;;;;;7.89;42.11;101736.94;5052896;28;20479;-79
2022/12/19 11:20:08;;;;;;;;;;;;;;;7.74;43.33;101735.38;5052670;28;20025;-79
2022/12/19 11:22:35;;;;;;;14.02;10.60;;;;;;;7.48;43.25;101674.06;5052116;28;19991;-79
2022/12/19 11:25:00;;;;;;;19.67;15.10;;;;;;;7.47;43.11;101657.47;5049983;28;20039;-79
2022/12/19 11:27:39;;;;;;;13.90;9.40;;;;;;;8.04;42.04;101743.75;5042590;28;20033;-79
2022/12/19 11:30:13;;;;;;;13.75;8.68;;;;;;;8.04;43.00;101741.13;5047029;28;20051;-79
2022/12/19 11:32:41;;;;;;;12.82;8.43;;;;;;;7.65;42.85;101690.38;5047446;28;20041;-79
2022/12/19 11:35:20;;;;;;;11.15;7.30;;;;;;;7.95;42.31;101739.13;5049949;28;20029;-79
2022/12/19 11:37:51;;;;;;;10.43;6.40;;;;;;;7.90;42.36;101742.09;5050453;28;20493;-79
2022/12/19 11:40:29;;;;;;;11.80;7.93;;;;;;;7.92;42.26;101742.81;5050972;28;20028;-79